sensor_id;sensor_type;location;lat;lon;timestamp;P1;durP1;ratioP1;P2;durP2;ratioP2
32297;SDS011;18782;48.984;8.548;2023-08-20T00:02:26;9.32;;;7.07;;
32297;SDS011;18782;48.984;8.548;2023-08-20T00:04:57;7.67;;;6.80;;
32297;SDS011;18782;48.984;8.548;2023-08-20T00:07:26;7.78;;;6.78;;
32297;SDS011;18782;48.984;8.548;2023-08-20T00:09:54;8.35;;;7.40;;
32297;SDS011;18782;48.984;8.548;2023-08-20T00:12:22;11.75;;;7.50;;
32297;SDS011;18782;48.984;8.548;2023-08-20T00:14:53;7.70;;;6.90;;
32297;SDS011;18782;48.984;8.548;2023-08-20T00:17:24;7.55;;;6.78;;
32297;SDS011;18782;48.984;8.548;2023-08-20T00:19:54;8.77;;;7.70;;
32297;SDS011;18782;48.984;8.548;2023-08-20T00:22:23;9.27;;;7.72;;
32297;SDS011;18782;48.984;8.548;2023-08-20T00:24:52;7.82;;;7.07;;
32297;SDS011;18782;48.984;8.548;2023-08-20T00:27:21;7.20;;;6.55;;
32297;SDS011;18782;48.984;8.548;2023-08-20T00:29:49;9.23;;;6.85;;
32297;SDS011;18782;48.984;8.548;2023-08-20T00:32:16;9.35;;;7.35;;
32297;SDS011;18782;48.984;8.548;2023-08-20T00:34:45;9.75;;;6.70;;
32297;SDS011;18782;48.984;8.548;2023-08-20T00:37:13;7.82;;;7.03;;
32297;SDS011;18782;48.984;8.548;2023-08-20T00:39:41;7.35;;;6.65;;
32297;SDS011;18782;48.984;8.548;2023-08-20T00:42:08;8.18;;;6.78;;
32297;SDS011;18782;48.984;8.548;2023-08-20T00:44:38;8.18;;;7.03;;
32297;SDS011;18782;48.984;8.548;2023-08-20T00:47:08;7.75;;;6.95;;
32297;SDS011;18782;48.984;8.548;2023-08-20T00:49:36;9.05;;;6.75;;
32297;SDS011;18782;48.984;8.548;2023-08-20T00:52:05;8.88;;;7.32;;
32297;SDS011;18782;48.984;8.548;2023-08-20T00:54:35;8.20;;;7.07;;
32297;SDS011;18782;48.984;8.548;2023-08-20T00:57:04;7.85;;;6.93;;
32297;SDS011;18782;48.984;8.548;2023-08-20T00:59:31;7.45;;;6.65;;
32297;SDS011;18782;48.984;8.548;2023-08-20T01:01:59;8.63;;;7.32;;
32297;SDS011;18782;48.984;8.548;2023-08-20T01:04:28;8.68;;;7.40;;
32297;SDS011;18782;48.984;8.548;2023-08-20T01:07:00;7.68;;;6.97;;
32297;SDS011;18782;48.984;8.548;2023-08-20T01:09:35;9.40;;;7.13;;
32297;SDS011;18782;48.984;8.548;2023-08-20T01:12:10;8.13;;;6.88;;
32297;SDS011;18782;48.984;8.548;2023-08-20T01:14:39;7.95;;;6.93;;
32297;SDS011;18782;48.984;8.548;2023-08-20T01:17:07;7.80;;;6.97;;
32297;SDS011;18782;48.984;8.548;2023-08-20T01:19:35;8.43;;;6.93;;
32297;SDS011;18782;48.984;8.548;2023-08-20T01:22:11;11.75;;;6.18;;
32297;SDS011;18782;48.984;8.548;2023-08-20T01:24:54;7.53;;;6.82;;
32297;SDS011;18782;48.984;8.548;2023-08-20T01:31:37;10.50;;;6.97;;
32297;SDS011;18782;48.984;8.548;2023-08-20T01:34:07;8.48;;;7.55;;
32297;SDS011;18782;48.984;8.548;2023-08-20T01:36:34;10.15;;;7.25;;
32297;SDS011;18782;48.984;8.548;2023-08-20T01:39:02;10.73;;;7.15;;
32297;SDS011;18782;48.984;8.548;2023-08-20T01:41:31;11.40;;;7.13;;
32297;SDS011;18782;48.984;8.548;2023-08-20T01:43:59;8.88;;;7.32;;
32297;SDS011;18782;48.984;8.548;2023-08-20T01:46:27;8.48;;;7.40;;
32297;SDS011;18782;48.984;8.548;2023-08-20T01:48:56;7.82;;;7.03;;
32297;SDS011;18782;48.984;8.548;2023-08-20T01:51:25;9.20;;;7.53;;
32297;SDS011;18782;48.984;8.548;2023-08-20T01:53:52;11.65;;;7.50;;
32297;SDS011;18782;48.984;8.548;2023-08-20T01:56:22;8.02;;;7.18;;
32297;SDS011;18782;48.984;8.548;2023-08-20T01:58:50;7.82;;;7.13;;
32297;SDS011;18782;48.984;8.548;2023-08-20T02:01:19;12.07;;;8.32;;
32297;SDS011;18782;48.984;8.548;2023-08-20T02:03:46;8.43;;;7.35;;
32297;SDS011;18782;48.984;8.548;2023-08-20T02:06:16;9.82;;;8.18;;
32297;SDS011;18782;48.984;8.548;2023-08-20T02:08:44;8.23;;;7.38;;
32297;SDS011;18782;48.984;8.548;2023-08-20T02:11:12;7.97;;;7.03;;
32297;SDS011;18782;48.984;8.548;2023-08-20T02:13:39;7.97;;;7.18;;
32297;SDS011;18782;48.984;8.548;2023-08-20T02:16:07;8.75;;;7.50;;
32297;SDS011;18782;48.984;8.548;2023-08-20T02:18:36;8.45;;;7.57;;
32297;SDS011;18782;48.984;8.548;2023-08-20T02:21:03;12.30;;;8.43;;
32297;SDS011;18782;48.984;8.548;2023-08-20T02:23:32;8.75;;;7.85;;
32297;SDS011;18782;48.984;8.548;2023-08-20T02:26:00;11.15;;;8.38;;
32297;SDS011;18782;48.984;8.548;2023-08-20T02:28:29;11.50;;;8.80;;
32297;SDS011;18782;48.984;8.548;2023-08-20T02:30:56;11.05;;;8.57;;
32297;SDS011;18782;48.984;8.548;2023-08-20T02:33:26;8.75;;;7.85;;
32297;SDS011;18782;48.984;8.548;2023-08-20T02:35:54;8.73;;;7.82;;
32297;SDS011;18782;48.984;8.548;2023-08-20T02:38:21;8.32;;;7.47;;
32297;SDS011;18782;48.984;8.548;2023-08-20T02:40:50;7.82;;;7.03;;
32297;SDS011;18782;48.984;8.548;2023-08-20T02:43:18;9.30;;;7.20;;
32297;SDS011;18782;48.984;8.548;2023-08-20T02:45:45;8.18;;;7.28;;
32297;SDS011;18782;48.984;8.548;2023-08-20T02:48:13;10.25;;;7.10;;
32297;SDS011;18782;48.984;8.548;2023-08-20T02:50:41;8.43;;;7.30;;
32297;SDS011;18782;48.984;8.548;2023-08-20T02:53:09;8.30;;;7.40;;
32297;SDS011;18782;48.984;8.548;2023-08-20T02:55:36;8.73;;;7.75;;
32297;SDS011;18782;48.984;8.548;2023-08-20T02:58:05;10.30;;;7.32;;
32297;SDS011;18782;48.984;8.548;2023-08-20T03:00:35;9.13;;;7.25;;
32297;SDS011;18782;48.984;8.548;2023-08-20T03:03:03;9.32;;;7.35;;
32297;SDS011;18782;48.984;8.548;2023-08-20T03:05:35;8.70;;;7.90;;
32297;SDS011;18782;48.984;8.548;2023-08-20T03:08:03;7.63;;;6.93;;
32297;SDS011;18782;48.984;8.548;2023-08-20T03:10:31;7.88;;;7.18;;
32297;SDS011;18782;48.984;8.548;2023-08-20T03:12:59;10.07;;;7.20;;
32297;SDS011;18782;48.984;8.548;2023-08-20T03:15:29;7.90;;;7.10;;
32297;SDS011;18782;48.984;8.548;2023-08-20T03:17:57;10.60;;;7.50;;
32297;SDS011;18782;48.984;8.548;2023-08-20T03:20:25;10.10;;;7.45;;
32297;SDS011;18782;48.984;8.548;2023-08-20T03:22:54;7.72;;;6.95;;
32297;SDS011;18782;48.984;8.548;2023-08-20T03:25:22;8.48;;;7.05;;
32297;SDS011;18782;48.984;8.548;2023-08-20T03:27:51;12.13;;;8.05;;
32297;SDS011;18782;48.984;8.548;2023-08-20T03:30:19;8.05;;;7.18;;
32297;SDS011;18782;48.984;8.548;2023-08-20T03:32:51;8.27;;;7.45;;
32297;SDS011;18782;48.984;8.548;2023-08-20T03:35:19;9.85;;;7.97;;
32297;SDS011;18782;48.984;8.548;2023-08-20T03:37:47;8.15;;;7.35;;
32297;SDS011;18782;48.984;8.548;2023-08-20T03:40:15;7.53;;;6.63;;
32297;SDS011;18782;48.984;8.548;2023-08-20T03:42:44;7.93;;;7.20;;
32297;SDS011;18782;48.984;8.548;2023-08-20T03:45:12;14.48;;;7.75;;
32297;SDS011;18782;48.984;8.548;2023-08-20T03:47:40;7.82;;;7.03;;
32297;SDS011;18782;48.984;8.548;2023-08-20T03:50:12;10.05;;;7.32;;
32297;SDS011;18782;48.984;8.548;2023-08-20T03:52:39;8.27;;;6.80;;
32297;SDS011;18782;48.984;8.548;2023-08-20T03:55:07;10.05;;;7.68;;
32297;SDS011;18782;48.984;8.548;2023-08-20T03:57:35;9.25;;;7.05;;
32297;SDS011;18782;48.984;8.548;2023-08-20T04:00:04;9.07;;;7.40;;
32297;SDS011;18782;48.984;8.548;2023-08-20T04:02:40;8.02;;;6.88;;
32297;SDS011;18782;48.984;8.548;2023-08-20T04:05:08;8.13;;;6.90;;
32297;SDS011;18782;48.984;8.548;2023-08-20T04:07:37;8.48;;;6.13;;
32297;SDS011;18782;48.984;8.548;2023-08-20T04:10:05;9.30;;;6.72;;
32297;SDS011;18782;48.984;8.548;2023-08-20T04:12:35;9.07;;;7.00;;
32297;SDS011;18782;48.984;8.548;2023-08-20T04:15:03;8.90;;;6.57;;
32297;SDS011;18782;48.984;8.548;2023-08-20T04:17:32;8.50;;;6.65;;
32297;SDS011;18782;48.984;8.548;2023-08-20T04:20:00;8.57;;;6.60;;
32297;SDS011;18782;48.984;8.548;2023-08-20T04:22:28;8.02;;;6.72;;
32297;SDS011;18782;48.984;8.548;2023-08-20T04:24:58;9.43;;;7.63;;
32297;SDS011;18782;48.984;8.548;2023-08-20T04:27:32;8.13;;;6.82;;
32297;SDS011;18782;48.984;8.548;2023-08-20T04:30:01;9.98;;;6.68;;
32297;SDS011;18782;48.984;8.548;2023-08-20T04:32:28;9.55;;;6.70;;
32297;SDS011;18782;48.984;8.548;2023-08-20T04:34:56;7.53;;;6.57;;
32297;SDS011;18782;48.984;8.548;2023-08-20T04:37:24;9.73;;;6.75;;
32297;SDS011;18782;48.984;8.548;2023-08-20T04:39:52;8.35;;;6.95;;
32297;SDS011;18782;48.984;8.548;2023-08-20T04:42:21;8.88;;;7.05;;
32297;SDS011;18782;48.984;8.548;2023-08-20T04:44:48;7.82;;;6.80;;
32297;SDS011;18782;48.984;8.548;2023-08-20T04:47:16;9.07;;;6.70;;
32297;SDS011;18782;48.984;8.548;2023-08-20T04:49:44;7.28;;;6.60;;
32297;SDS011;18782;48.984;8.548;2023-08-20T04:52:12;8.20;;;7.15;;
32297;SDS011;18782;48.984;8.548;2023-08-20T04:54:40;7.75;;;6.70;;
32297;SDS011;18782;48.984;8.548;2023-08-20T04:57:08;9.30;;;6.45;;
32297;SDS011;18782;48.984;8.548;2023-08-20T04:59:37;8.98;;;6.70;;
32297;SDS011;18782;48.984;8.548;2023-08-20T05:02:34;7.15;;;6.13;;
32297;SDS011;18782;48.984;8.548;2023-08-20T05:05:02;8.75;;;7.32;;
32297;SDS011;18782;48.984;8.548;2023-08-20T05:07:30;8.30;;;7.40;;
32297;SDS011;18782;48.984;8.548;2023-08-20T05:09:58;8.48;;;6.88;;
32297;SDS011;18782;48.984;8.548;2023-08-20T05:12:26;7.38;;;6.72;;
32297;SDS011;18782;48.984;8.548;2023-08-20T05:14:55;7.63;;;6.90;;
32297;SDS011;18782;48.984;8.548;2023-08-20T05:17:23;7.40;;;6.70;;
32297;SDS011;18782;48.984;8.548;2023-08-20T05:19:51;6.90;;;6.13;;
32297;SDS011;18782;48.984;8.548;2023-08-20T05:22:19;7.35;;;6.57;;
32297;SDS011;18782;48.984;8.548;2023-08-20T05:24:47;7.30;;;6.50;;
32297;SDS011;18782;48.984;8.548;2023-08-20T05:27:16;6.97;;;6.38;;
32297;SDS011;18782;48.984;8.548;2023-08-20T05:29:46;8.70;;;6.68;;
32297;SDS011;18782;48.984;8.548;2023-08-20T05:32:16;8.15;;;7.45;;
32297;SDS011;18782;48.984;8.548;2023-08-20T05:34:46;10.90;;;7.90;;
32297;SDS011;18782;48.984;8.548;2023-08-20T05:37:13;8.70;;;7.38;;
32297;SDS011;18782;48.984;8.548;2023-08-20T05:39:42;8.25;;;7.00;;
32297;SDS011;18782;48.984;8.548;2023-08-20T05:42:12;10.18;;;7.40;;
32297;SDS011;18782;48.984;8.548;2023-08-20T05:47:18;8.30;;;7.20;;
32297;SDS011;18782;48.984;8.548;2023-08-20T05:49:47;7.60;;;6.68;;
32297;SDS011;18782;48.984;8.548;2023-08-20T05:52:15;7.82;;;6.53;;
32297;SDS011;18782;48.984;8.548;2023-08-20T05:54:43;9.13;;;8.23;;
32297;SDS011;18782;48.984;8.548;2023-08-20T05:57:11;8.77;;;6.95;;
32297;SDS011;18782;48.984;8.548;2023-08-20T05:59:40;10.95;;;8.38;;
32297;SDS011;18782;48.984;8.548;2023-08-20T06:02:08;9.35;;;7.65;;
32297;SDS011;18782;48.984;8.548;2023-08-20T06:04:37;13.82;;;10.93;;
32297;SDS011;18782;48.984;8.548;2023-08-20T06:07:05;10.77;;;9.02;;
32297;SDS011;18782;48.984;8.548;2023-08-20T06:09:32;10.05;;;9.05;;
32297;SDS011;18782;48.984;8.548;2023-08-20T06:12:00;8.57;;;7.55;;
32297;SDS011;18782;48.984;8.548;2023-08-20T06:14:28;8.68;;;7.43;;
32297;SDS011;18782;48.984;8.548;2023-08-20T06:16:55;8.55;;;7.35;;
32297;SDS011;18782;48.984;8.548;2023-08-20T06:19:23;7.80;;;6.78;;
32297;SDS011;18782;48.984;8.548;2023-08-20T06:21:52;8.32;;;7.32;;
32297;SDS011;18782;48.984;8.548;2023-08-20T06:24:19;7.70;;;7.00;;
32297;SDS011;18782;48.984;8.548;2023-08-20T06:26:47;8.77;;;6.22;;
32297;SDS011;18782;48.984;8.548;2023-08-20T06:29:15;7.60;;;6.72;;
32297;SDS011;18782;48.984;8.548;2023-08-20T06:31:42;8.07;;;7.00;;
32297;SDS011;18782;48.984;8.548;2023-08-20T06:34:10;8.98;;;6.80;;
32297;SDS011;18782;48.984;8.548;2023-08-20T06:36:38;13.05;;;10.02;;
32297;SDS011;18782;48.984;8.548;2023-08-20T06:39:07;12.98;;;10.10;;
32297;SDS011;18782;48.984;8.548;2023-08-20T06:41:35;23.20;;;18.85;;
32297;SDS011;18782;48.984;8.548;2023-08-20T06:44:10;16.08;;;13.48;;
32297;SDS011;18782;48.984;8.548;2023-08-20T06:46:37;14.10;;;10.20;;
32297;SDS011;18782;48.984;8.548;2023-08-20T06:49:05;9.15;;;7.55;;
32297;SDS011;18782;48.984;8.548;2023-08-20T06:51:33;9.65;;;8.48;;
32297;SDS011;18782;48.984;8.548;2023-08-20T06:54:01;8.40;;;7.50;;
32297;SDS011;18782;48.984;8.548;2023-08-20T06:56:30;9.07;;;7.60;;
32297;SDS011;18782;48.984;8.548;2023-08-20T06:58:57;11.60;;;9.18;;
32297;SDS011;18782;48.984;8.548;2023-08-20T07:01:25;11.02;;;8.68;;
32297;SDS011;18782;48.984;8.548;2023-08-20T07:03:53;7.55;;;6.75;;
32297;SDS011;18782;48.984;8.548;2023-08-20T07:06:21;9.65;;;7.60;;
32297;SDS011;18782;48.984;8.548;2023-08-20T07:08:49;13.95;;;11.38;;
32297;SDS011;18782;48.984;8.548;2023-08-20T07:11:17;10.52;;;7.47;;
32297;SDS011;18782;48.984;8.548;2023-08-20T07:13:45;9.60;;;7.13;;
32297;SDS011;18782;48.984;8.548;2023-08-20T07:16:13;9.07;;;7.20;;
32297;SDS011;18782;48.984;8.548;2023-08-20T07:18:41;8.93;;;6.38;;
32297;SDS011;18782;48.984;8.548;2023-08-20T07:21:09;7.22;;;6.53;;
32297;SDS011;18782;48.984;8.548;2023-08-20T07:23:36;8.60;;;6.82;;
32297;SDS011;18782;48.984;8.548;2023-08-20T07:26:04;8.38;;;7.03;;
32297;SDS011;18782;48.984;8.548;2023-08-20T07:28:33;6.97;;;6.28;;
32297;SDS011;18782;48.984;8.548;2023-08-20T07:31:20;7.03;;;6.32;;
32297;SDS011;18782;48.984;8.548;2023-08-20T07:33:48;7.68;;;6.28;;
32297;SDS011;18782;48.984;8.548;2023-08-20T07:36:16;8.32;;;6.28;;
32297;SDS011;18782;48.984;8.548;2023-08-20T07:38:45;7.53;;;6.70;;
32297;SDS011;18782;48.984;8.548;2023-08-20T07:41:13;7.38;;;5.72;;
32297;SDS011;18782;48.984;8.548;2023-08-20T07:43:40;7.40;;;6.70;;
32297;SDS011;18782;48.984;8.548;2023-08-20T07:46:08;7.80;;;6.75;;
32297;SDS011;18782;48.984;8.548;2023-08-20T07:48:38;8.07;;;6.47;;
32297;SDS011;18782;48.984;8.548;2023-08-20T07:51:06;8.35;;;6.15;;
32297;SDS011;18782;48.984;8.548;2023-08-20T07:53:33;8.60;;;6.43;;
32297;SDS011;18782;48.984;8.548;2023-08-20T07:56:02;7.95;;;6.40;;
32297;SDS011;18782;48.984;8.548;2023-08-20T07:58:30;6.95;;;6.05;;
32297;SDS011;18782;48.984;8.548;2023-08-20T08:00:58;7.90;;;6.57;;
32297;SDS011;18782;48.984;8.548;2023-08-20T08:03:26;6.93;;;6.28;;
32297;SDS011;18782;48.984;8.548;2023-08-20T08:05:55;7.43;;;6.00;;
32297;SDS011;18782;48.984;8.548;2023-08-20T08:08:23;6.85;;;6.25;;
32297;SDS011;18782;48.984;8.548;2023-08-20T08:10:51;10.65;;;7.82;;
32297;SDS011;18782;48.984;8.548;2023-08-20T08:13:19;8.00;;;6.57;;
32297;SDS011;18782;48.984;8.548;2023-08-20T08:15:49;10.23;;;7.25;;
32297;SDS011;18782;48.984;8.548;2023-08-20T08:18:17;7.32;;;6.63;;
32297;SDS011;18782;48.984;8.548;2023-08-20T08:20:49;9.68;;;7.60;;
32297;SDS011;18782;48.984;8.548;2023-08-20T08:23:18;8.90;;;6.45;;
32297;SDS011;18782;48.984;8.548;2023-08-20T08:25:46;6.43;;;5.85;;
32297;SDS011;18782;48.984;8.548;2023-08-20T08:28:14;7.07;;;6.20;;
32297;SDS011;18782;48.984;8.548;2023-08-20T08:30:42;7.03;;;6.05;;
32297;SDS011;18782;48.984;8.548;2023-08-20T08:33:09;8.20;;;7.40;;
32297;SDS011;18782;48.984;8.548;2023-08-20T08:35:37;9.02;;;6.80;;
32297;SDS011;18782;48.984;8.548;2023-08-20T08:38:05;7.45;;;6.63;;
32297;SDS011;18782;48.984;8.548;2023-08-20T08:40:34;8.55;;;7.70;;
32297;SDS011;18782;48.984;8.548;2023-08-20T08:43:02;9.40;;;6.28;;
32297;SDS011;18782;48.984;8.548;2023-08-20T08:45:30;9.43;;;5.97;;
32297;SDS011;18782;48.984;8.548;2023-08-20T08:48:01;6.90;;;6.22;;
32297;SDS011;18782;48.984;8.548;2023-08-20T08:50:30;7.38;;;5.85;;
32297;SDS011;18782;48.984;8.548;2023-08-20T08:52:59;6.80;;;6.20;;
32297;SDS011;18782;48.984;8.548;2023-08-20T08:55:27;6.82;;;6.22;;
32297;SDS011;18782;48.984;8.548;2023-08-20T08:57:56;10.02;;;6.45;;
32297;SDS011;18782;48.984;8.548;2023-08-20T09:00:24;8.57;;;6.32;;
32297;SDS011;18782;48.984;8.548;2023-08-20T09:02:52;7.13;;;6.10;;
32297;SDS011;18782;48.984;8.548;2023-08-20T09:05:20;6.38;;;5.82;;
32297;SDS011;18782;48.984;8.548;2023-08-20T09:07:49;6.85;;;6.25;;
32297;SDS011;18782;48.984;8.548;2023-08-20T09:10:25;9.68;;;6.00;;
32297;SDS011;18782;48.984;8.548;2023-08-20T09:12:54;9.68;;;6.60;;
32297;SDS011;18782;48.984;8.548;2023-08-20T09:15:31;8.02;;;5.85;;
32297;SDS011;18782;48.984;8.548;2023-08-20T09:18:01;8.05;;;6.40;;
32297;SDS011;18782;48.984;8.548;2023-08-20T09:20:33;6.47;;;5.50;;
32297;SDS011;18782;48.984;8.548;2023-08-20T09:23:02;6.75;;;5.75;;
32297;SDS011;18782;48.984;8.548;2023-08-20T09:25:30;6.85;;;6.05;;
32297;SDS011;18782;48.984;8.548;2023-08-20T09:28:02;7.50;;;6.10;;
32297;SDS011;18782;48.984;8.548;2023-08-20T09:30:31;7.80;;;6.00;;
32297;SDS011;18782;48.984;8.548;2023-08-20T09:33:03;8.45;;;6.10;;
32297;SDS011;18782;48.984;8.548;2023-08-20T09:35:32;6.55;;;5.53;;
32297;SDS011;18782;48.984;8.548;2023-08-20T09:37:59;6.38;;;5.68;;
32297;SDS011;18782;48.984;8.548;2023-08-20T09:40:27;6.70;;;6.00;;
32297;SDS011;18782;48.984;8.548;2023-08-20T09:42:55;6.50;;;5.88;;
32297;SDS011;18782;48.984;8.548;2023-08-20T09:45:24;7.78;;;6.18;;
32297;SDS011;18782;48.984;8.548;2023-08-20T09:47:54;8.43;;;6.15;;
32297;SDS011;18782;48.984;8.548;2023-08-20T09:50:23;7.10;;;5.10;;
32297;SDS011;18782;48.984;8.548;2023-08-20T09:52:55;7.13;;;5.88;;
32297;SDS011;18782;48.984;8.548;2023-08-20T09:55:28;6.25;;;5.47;;
32297;SDS011;18782;48.984;8.548;2023-08-20T09:58:00;8.43;;;5.60;;
32297;SDS011;18782;48.984;8.548;2023-08-20T10:00:29;7.97;;;7.00;;
32297;SDS011;18782;48.984;8.548;2023-08-20T10:02:59;7.82;;;5.68;;
32297;SDS011;18782;48.984;8.548;2023-08-20T10:05:27;9.10;;;5.68;;
32297;SDS011;18782;48.984;8.548;2023-08-20T10:07:55;8.45;;;5.82;;
32297;SDS011;18782;48.984;8.548;2023-08-20T10:10:23;7.75;;;6.35;;
32297;SDS011;18782;48.984;8.548;2023-08-20T10:12:53;6.13;;;5.47;;
32297;SDS011;18782;48.984;8.548;2023-08-20T10:15:22;7.78;;;5.95;;
32297;SDS011;18782;48.984;8.548;2023-08-20T10:17:52;6.97;;;5.47;;
32297;SDS011;18782;48.984;8.548;2023-08-20T10:20:22;7.63;;;5.75;;
32297;SDS011;18782;48.984;8.548;2023-08-20T10:22:50;8.13;;;5.25;;
32297;SDS011;18782;48.984;8.548;2023-08-20T10:25:24;6.18;;;5.20;;
32297;SDS011;18782;48.984;8.548;2023-08-20T10:27:53;6.30;;;4.93;;
32297;SDS011;18782;48.984;8.548;2023-08-20T10:30:37;7.57;;;5.63;;
32297;SDS011;18782;48.984;8.548;2023-08-20T10:33:05;7.05;;;5.43;;
32297;SDS011;18782;48.984;8.548;2023-08-20T10:35:49;7.22;;;5.47;;
32297;SDS011;18782;48.984;8.548;2023-08-20T10:38:18;5.63;;;5.13;;
32297;SDS011;18782;48.984;8.548;2023-08-20T10:40:46;6.28;;;5.68;;
32297;SDS011;18782;48.984;8.548;2023-08-20T10:43:23;5.68;;;4.93;;
32297;SDS011;18782;48.984;8.548;2023-08-20T10:46:05;5.93;;;4.88;;
32297;SDS011;18782;48.984;8.548;2023-08-20T10:48:36;6.57;;;5.20;;
32297;SDS011;18782;48.984;8.548;2023-08-20T10:51:07;8.00;;;5.28;;
32297;SDS011;18782;48.984;8.548;2023-08-20T10:53:36;5.13;;;4.57;;
32297;SDS011;18782;48.984;8.548;2023-08-20T10:56:11;4.80;;;4.30;;
32297;SDS011;18782;48.984;8.548;2023-08-20T10:58:43;6.40;;;5.05;;
32297;SDS011;18782;48.984;8.548;2023-08-20T11:01:13;5.78;;;4.85;;
32297;SDS011;18782;48.984;8.548;2023-08-20T11:03:42;5.35;;;4.18;;
32297;SDS011;18782;48.984;8.548;2023-08-20T11:06:12;5.40;;;4.43;;
32297;SDS011;18782;48.984;8.548;2023-08-20T11:08:40;10.57;;;8.07;;
32297;SDS011;18782;48.984;8.548;2023-08-20T11:11:09;7.25;;;6.00;;
32297;SDS011;18782;48.984;8.548;2023-08-20T11:13:38;7.20;;;5.30;;
32297;SDS011;18782;48.984;8.548;2023-08-20T11:16:06;13.15;;;9.52;;
32297;SDS011;18782;48.984;8.548;2023-08-20T11:18:35;6.35;;;4.90;;
32297;SDS011;18782;48.984;8.548;2023-08-20T11:21:03;6.45;;;4.78;;
32297;SDS011;18782;48.984;8.548;2023-08-20T11:23:32;5.93;;;5.13;;
32297;SDS011;18782;48.984;8.548;2023-08-20T11:26:00;5.40;;;4.80;;
32297;SDS011;18782;48.984;8.548;2023-08-20T11:28:28;7.63;;;5.05;;
32297;SDS011;18782;48.984;8.548;2023-08-20T11:30:56;6.55;;;4.28;;
32297;SDS011;18782;48.984;8.548;2023-08-20T11:33:24;5.88;;;4.75;;
32297;SDS011;18782;48.984;8.548;2023-08-20T11:35:52;6.72;;;4.30;;
32297;SDS011;18782;48.984;8.548;2023-08-20T11:38:22;5.00;;;4.50;;
32297;SDS011;18782;48.984;8.548;2023-08-20T11:40:52;5.63;;;4.15;;
32297;SDS011;18782;48.984;8.548;2023-08-20T11:43:21;4.72;;;4.20;;
32297;SDS011;18782;48.984;8.548;2023-08-20T11:45:49;7.00;;;4.80;;
32297;SDS011;18782;48.984;8.548;2023-08-20T11:48:17;5.45;;;4.85;;
32297;SDS011;18782;48.984;8.548;2023-08-20T11:50:45;6.05;;;4.43;;
32297;SDS011;18782;48.984;8.548;2023-08-20T11:53:12;5.35;;;4.55;;
32297;SDS011;18782;48.984;8.548;2023-08-20T11:55:40;6.03;;;4.65;;
32297;SDS011;18782;48.984;8.548;2023-08-20T11:58:11;6.28;;;4.35;;
32297;SDS011;18782;48.984;8.548;2023-08-20T12:00:40;5.18;;;4.60;;
32297;SDS011;18782;48.984;8.548;2023-08-20T12:03:08;5.30;;;3.90;;
32297;SDS011;18782;48.984;8.548;2023-08-20T12:05:40;7.13;;;4.55;;
32297;SDS011;18782;48.984;8.548;2023-08-20T12:08:08;5.13;;;3.63;;
32297;SDS011;18782;48.984;8.548;2023-08-20T12:10:42;4.60;;;3.47;;
32297;SDS011;18782;48.984;8.548;2023-08-20T12:13:12;6.50;;;4.20;;
32297;SDS011;18782;48.984;8.548;2023-08-20T12:15:40;4.60;;;3.53;;
32297;SDS011;18782;48.984;8.548;2023-08-20T12:18:07;4.18;;;3.20;;
32297;SDS011;18782;48.984;8.548;2023-08-20T12:20:36;5.55;;;3.60;;
32297;SDS011;18782;48.984;8.548;2023-08-20T12:23:06;4.05;;;3.47;;
32297;SDS011;18782;48.984;8.548;2023-08-20T12:25:35;4.63;;;3.72;;
32297;SDS011;18782;48.984;8.548;2023-08-20T12:28:04;4.05;;;3.60;;
32297;SDS011;18782;48.984;8.548;2023-08-20T12:30:34;6.80;;;5.28;;
32297;SDS011;18782;48.984;8.548;2023-08-20T12:33:04;5.65;;;3.40;;
32297;SDS011;18782;48.984;8.548;2023-08-20T12:35:33;7.97;;;7.18;;
32297;SDS011;18782;48.984;8.548;2023-08-20T12:38:01;5.75;;;5.03;;
32297;SDS011;18782;48.984;8.548;2023-08-20T12:40:29;6.10;;;4.28;;
32297;SDS011;18782;48.984;8.548;2023-08-20T12:42:58;7.68;;;4.72;;
32297;SDS011;18782;48.984;8.548;2023-08-20T12:45:25;4.15;;;3.75;;
32297;SDS011;18782;48.984;8.548;2023-08-20T12:47:54;5.05;;;3.80;;
32297;SDS011;18782;48.984;8.548;2023-08-20T12:50:26;4.32;;;3.92;;
32297;SDS011;18782;48.984;8.548;2023-08-20T12:52:55;6.38;;;4.05;;
32297;SDS011;18782;48.984;8.548;2023-08-20T12:55:25;3.95;;;3.50;;
32297;SDS011;18782;48.984;8.548;2023-08-20T12:57:54;4.03;;;3.10;;
32297;SDS011;18782;48.984;8.548;2023-08-20T13:00:23;5.85;;;4.30;;
32297;SDS011;18782;48.984;8.548;2023-08-20T13:02:53;4.80;;;4.00;;
32297;SDS011;18782;48.984;8.548;2023-08-20T13:05:24;4.10;;;3.38;;
32297;SDS011;18782;48.984;8.548;2023-08-20T13:07:53;4.53;;;3.58;;
32297;SDS011;18782;48.984;8.548;2023-08-20T13:10:21;3.83;;;3.42;;
32297;SDS011;18782;48.984;8.548;2023-08-20T13:12:50;4.07;;;3.58;;
32297;SDS011;18782;48.984;8.548;2023-08-20T13:15:20;6.95;;;3.47;;
32297;SDS011;18782;48.984;8.548;2023-08-20T13:17:51;5.32;;;4.50;;
32297;SDS011;18782;48.984;8.548;2023-08-20T13:20:20;5.60;;;4.03;;
32297;SDS011;18782;48.984;8.548;2023-08-20T13:22:50;6.90;;;4.30;;
32297;SDS011;18782;48.984;8.548;2023-08-20T13:25:19;4.30;;;3.33;;
32297;SDS011;18782;48.984;8.548;2023-08-20T13:27:48;3.72;;;2.90;;
32297;SDS011;18782;48.984;8.548;2023-08-20T13:30:16;5.05;;;3.30;;
32297;SDS011;18782;48.984;8.548;2023-08-20T13:32:45;4.63;;;3.08;;
32297;SDS011;18782;48.984;8.548;2023-08-20T13:35:13;4.13;;;2.95;;
32297;SDS011;18782;48.984;8.548;2023-08-20T13:37:43;4.63;;;3.17;;
32297;SDS011;18782;48.984;8.548;2023-08-20T13:40:11;3.72;;;2.95;;
32297;SDS011;18782;48.984;8.548;2023-08-20T13:42:38;4.57;;;3.22;;
32297;SDS011;18782;48.984;8.548;2023-08-20T13:45:07;3.88;;;2.97;;
32297;SDS011;18782;48.984;8.548;2023-08-20T13:47:35;5.13;;;3.63;;
32297;SDS011;18782;48.984;8.548;2023-08-20T13:50:03;3.35;;;3.05;;
32297;SDS011;18782;48.984;8.548;2023-08-20T13:52:31;3.85;;;3.20;;
32297;SDS011;18782;48.984;8.548;2023-08-20T13:55:01;5.00;;;3.30;;
32297;SDS011;18782;48.984;8.548;2023-08-20T13:57:29;4.82;;;3.00;;
32297;SDS011;18782;48.984;8.548;2023-08-20T13:59:57;3.33;;;2.60;;
32297;SDS011;18782;48.984;8.548;2023-08-20T14:02:26;4.53;;;2.90;;
32297;SDS011;18782;48.984;8.548;2023-08-20T14:04:53;6.35;;;2.78;;
32297;SDS011;18782;48.984;8.548;2023-08-20T14:07:21;3.55;;;2.47;;
32297;SDS011;18782;48.984;8.548;2023-08-20T14:09:50;2.80;;;2.50;;
32297;SDS011;18782;48.984;8.548;2023-08-20T14:12:19;3.08;;;2.75;;
32297;SDS011;18782;48.984;8.548;2023-08-20T14:14:47;3.72;;;3.00;;
32297;SDS011;18782;48.984;8.548;2023-08-20T14:17:15;3.47;;;2.60;;
32297;SDS011;18782;48.984;8.548;2023-08-20T14:19:43;3.17;;;2.60;;
32297;SDS011;18782;48.984;8.548;2023-08-20T14:22:11;4.00;;;3.15;;
32297;SDS011;18782;48.984;8.548;2023-08-20T14:24:38;4.93;;;3.17;;
32297;SDS011;18782;48.984;8.548;2023-08-20T14:27:06;3.88;;;2.70;;
32297;SDS011;18782;48.984;8.548;2023-08-20T14:29:35;6.38;;;3.28;;
32297;SDS011;18782;48.984;8.548;2023-08-20T14:32:03;3.45;;;2.85;;
32297;SDS011;18782;48.984;8.548;2023-08-20T14:34:31;4.63;;;3.10;;
32297;SDS011;18782;48.984;8.548;2023-08-20T14:36:59;4.07;;;2.80;;
32297;SDS011;18782;48.984;8.548;2023-08-20T14:39:27;4.38;;;3.00;;
32297;SDS011;18782;48.984;8.548;2023-08-20T14:41:57;5.30;;;2.67;;
32297;SDS011;18782;48.984;8.548;2023-08-20T14:44:26;3.60;;;2.90;;
32297;SDS011;18782;48.984;8.548;2023-08-20T14:46:55;3.72;;;2.75;;
32297;SDS011;18782;48.984;8.548;2023-08-20T14:49:23;6.07;;;2.78;;
32297;SDS011;18782;48.984;8.548;2023-08-20T14:51:51;2.50;;;2.30;;
32297;SDS011;18782;48.984;8.548;2023-08-20T14:54:31;6.07;;;2.80;;
32297;SDS011;18782;48.984;8.548;2023-08-20T14:56:59;6.03;;;2.97;;
32297;SDS011;18782;48.984;8.548;2023-08-20T14:59:27;4.03;;;3.63;;
32297;SDS011;18782;48.984;8.548;2023-08-20T15:01:57;4.63;;;3.60;;
32297;SDS011;18782;48.984;8.548;2023-08-20T15:04:27;2.92;;;2.72;;